Time;durP1;ratioP1;P1;durP2;ratioP2;P2;SDS_P1;SDS_P2;PMS_P1;PMS_P2;Temp;Humidity;BMP_temperature;BMP_pressure;BME280_temperature;BME280_humidity;BME280_pressure;Samples;Min_cycle;Max_cycle;Signal;HPM_P1;HPM_P2
2023/04/28 00:01:13;;;;;;;6.88;5.85;;;10.70;99.90;;;;;;4973040;28;20487;-82
2023/04/28 00:03:39;;;;;;;8.20;6.68;;;10.80;99.90;;;;;;4973110;28;20030;-82
2023/04/28 00:06:05;;;;;;;7.78;6.38;;;10.80;99.90;;;;;;4972506;28;20427;-82
2023/04/28 00:08:31;;;;;;;7.40;6.28;;;10.80;99.90;;;;;;4974121;28;20077;-83
2023/04/28 00:10:57;;;;;;;6.03;5.43;;;10.80;99.90;;;;;;4973414;28;20467;-84
2023/04/28 00:13:23;;;;;;;6.65;6.05;;;10.80;99.90;;;;;;4971989;28;20023;-83
2023/04/28 00:15:51;;;;;;;11.90;6.10;;;10.70;99.90;;;;;;4973107;28;20503;-83
2023/04/28 00:18:17;;;;;;;9.10;5.95;;;10.80;99.90;;;;;;4972428;28;20106;-83
2023/04/28 00:20:43;;;;;;;7.88;6.75;;;10.70;99.90;;;;;;4972558;28;20117;-83
2023/04/28 00:23:08;;;;;;;9.35;7.30;;;10.60;99.90;;;;;;4973067;28;20031;-83
2023/04/28 00:25:34;;;;;;;8.75;6.22;;;10.50;99.90;;;;;;4972927;28;20529;-83
2023/04/28 00:28:00;;;;;;;9.80;6.38;;;10.50;99.90;;;;;;4972298;28;20054;-82
2023/04/28 00:30:26;;;;;;;7.80;7.10;;;10.50;99.90;;;;;;4972965;28;20082;-82
2023/04/28 00:32:51;;;;;;;9.93;6.65;;;10.50;99.90;;;;;;4975660;28;20027;-83
2023/04/28 00:35:17;;;;;;;8.77;6.60;;;10.60;99.90;;;;;;4975839;28;20111;-83
2023/04/28 00:37:43;;;;;;;7.00;6.30;;;10.50;99.90;;;;;;4976456;28;20073;-83
2023/04/28 00:40:09;;;;;;;8.10;6.38;;;10.60;99.90;;;;;;4976149;28;20073;-83
2023/04/28 00:42:35;;;;;;;8.40;6.30;;;10.50;99.90;;;;;;4976381;28;20097;-83
2023/04/28 00:45:04;;;;;;;7.65;6.85;;;10.60;99.90;;;;;;4976091;28;20038;-83
2023/04/28 00:47:31;;;;;;;11.15;6.15;;;10.60;99.90;;;;;;4975864;28;20038;-83
2023/04/28 00:49:58;;;;;;;9.07;5.78;;;10.50;99.90;;;;;;4976608;28;20110;-83
2023/04/28 00:52:24;;;;;;;8.13;6.07;;;10.50;99.90;;;;;;4975800;28;20026;-83
2023/04/28 00:54:49;;;;;;;7.28;6.50;;;10.50;99.90;;;;;;4975805;28;20076;-83
2023/04/28 00:57:15;;;;;;;8.00;6.95;;;10.50;99.90;;;;;;4976157;28;20026;-83
2023/04/28 00:59:41;;;;;;;7.68;6.50;;;10.40;99.90;;;;;;4976075;28;20116;-83
2023/04/28 01:02:07;;;;;;;8.00;6.63;;;10.50;99.90;;;;;;4975341;28;20019;-83
2023/04/28 01:04:33;;;;;;;11.90;6.90;;;10.40;99.90;;;;;;4975960;28;20153;-83
2023/04/28 01:07:00;;;;;;;9.95;5.95;;;10.40;99.90;;;;;;4975967;28;20030;-83
2023/04/28 01:09:26;;;;;;;8.68;6.20;;;10.40;99.90;;;;;;4975339;28;20105;-82
2023/04/28 01:11:51;;;;;;;8.80;6.72;;;10.40;99.90;;;;;;4976026;28;20567;-83
2023/04/28 01:14:17;;;;;;;8.82;6.45;;;10.40;99.90;;;;;;4975446;28;20596;-83
2023/04/28 01:16:43;;;;;;;10.45;6.47;;;10.40;99.90;;;;;;4975524;28;20023;-83
2023/04/28 01:19:21;;;;;;;12.07;6.80;;;10.40;99.90;;;;;;4975641;28;20030;-83
2023/04/28 01:21:47;;;;;;;10.95;7.10;;;10.30;99.90;;;;;;4975620;28;20030;-83
2023/04/28 01:24:12;;;;;;;9.23;7.60;;;10.20;99.90;;;;;;4974882;28;20031;-83
2023/04/28 01:26:38;;;;;;;12.20;7.30;;;10.30;99.90;;;;;;4975448;28;20033;-83
2023/04/28 01:29:03;;;;;;;11.68;7.18;;;10.20;99.90;;;;;;4975687;28;20019;-82
2023/04/28 01:31:29;;;;;;;8.60;7.55;;;10.30;99.90;;;;;;4975338;28;20027;-82
2023/04/28 01:33:55;;;;;;;9.45;6.85;;;10.30;99.90;;;;;;4975764;28;20526;-82
2023/04/28 01:36:22;;;;;;;7.63;6.78;;;10.30;99.90;;;;;;4975239;28;20057;-83
2023/04/28 01:38:48;;;;;;;9.38;7.45;;;10.30;99.90;;;;;;4974810;28;20077;-83
2023/04/28 01:41:14;;;;;;;8.13;7.18;;;10.10;99.90;;;;;;4974795;28;20129;-82
2023/04/28 01:43:40;;;;;;;7.95;7.15;;;10.10;99.90;;;;;;4974694;28;20102;-83
2023/04/28 01:46:05;;;;;;;8.88;6.82;;;10.10;99.90;;;;;;4975000;28;20031;-83
2023/04/28 01:48:31;;;;;;;8.90;6.90;;;10.00;99.90;;;;;;4975183;28;20031;-83
2023/04/28 01:50:56;;;;;;;8.75;6.78;;;10.20;99.90;;;;;;4974675;28;20033;-83
2023/04/28 01:53:22;;;;;;;11.13;6.88;;;10.10;99.90;;;;;;4974798;28;20039;-82
2023/04/28 01:55:47;;;;;;;11.55;7.53;;;10.10;99.90;;;;;;4975217;28;20062;-82
2023/04/28 01:58:13;;;;;;;9.73;7.18;;;10.10;99.90;;;;;;4973505;28;20042;-83
2023/04/28 02:00:38;;;;;;;7.90;6.47;;;10.10;99.90;;;;;;4974965;28;20054;-82
2023/04/28 02:03:04;;;;;;;9.50;7.55;;;10.10;99.90;;;;;;4974653;28;20081;-82
2023/04/28 02:05:30;;;;;;;7.70;6.80;;;10.10;99.90;;;;;;4974899;28;20109;-82
2023/04/28 02:07:56;;;;;;;9.70;7.25;;;10.20;99.90;;;;;;4975424;28;20022;-81
2023/04/28 02:10:21;;;;;;;10.00;7.88;;;10.10;99.90;;;;;;4974698;28;20027;-84
2023/04/28 02:12:47;;;;;;;10.02;6.88;;;10.00;99.90;;;;;;4974625;28;20030;-83
2023/04/28 02:15:13;;;;;;;9.20;7.57;;;10.10;99.90;;;;;;4974530;28;20490;-83
2023/04/28 02:17:38;;;;;;;12.18;7.35;;;10.00;99.90;;;;;;4974800;28;20019;-84
2023/04/28 02:20:05;;;;;;;14.43;7.53;;;10.00;99.90;;;;;;4973946;28;20035;-84
2023/04/28 02:22:30;;;;;;;12.27;7.65;;;10.00;99.90;;;;;;4974905;28;20038;-83
2023/04/28 02:24:56;;;;;;;8.30;7.28;;;10.00;99.90;;;;;;4974794;28;20027;-83
2023/04/28 02:27:22;;;;;;;10.23;7.20;;;10.00;99.90;;;;;;4973498;28;20023;-83
2023/04/28 02:29:47;;;;;;;13.15;7.85;;;10.00;99.90;;;;;;4974877;28;20026;-84
2023/04/28 02:32:13;;;;;;;14.07;7.85;;;10.00;99.90;;;;;;4974337;28;20030;-83
2023/04/28 02:34:38;;;;;;;11.10;7.78;;;10.00;99.90;;;;;;4973873;28;20039;-83
2023/04/28 02:37:04;;;;;;;10.80;6.80;;;10.10;99.90;;;;;;4974192;28;20493;-84
2023/04/28 02:39:31;;;;;;;8.70;7.05;;;10.60;99.90;;;;;;4974167;28;20050;-83
2023/04/28 02:41:57;;;;;;;11.98;7.85;;;10.10;99.90;;;;;;4973548;28;20431;-83
2023/04/28 02:44:23;;;;;;;7.45;6.72;;;10.00;99.90;;;;;;4974064;28;20035;-83
2023/04/28 02:46:49;;;;;;;8.45;7.30;;;10.10;99.90;;;;;;4974111;28;20019;-82
2023/04/28 02:49:14;;;;;;;10.43;7.28;;;10.00;99.90;;;;;;4973843;28;20026;-83
2023/04/28 02:51:40;;;;;;;11.23;7.18;;;10.00;99.90;;;;;;4974540;28;20466;-83
2023/04/28 02:54:06;;;;;;;7.22;6.35;;;10.00;99.90;;;;;;4973067;28;20027;-83
2023/04/28 02:56:32;;;;;;;11.25;7.22;;;10.00;99.90;;;;;;4974137;28;20469;-83
2023/04/28 02:58:57;;;;;;;7.13;6.43;;;10.10;99.90;;;;;;4973970;28;20019;-83
2023/04/28 03:01:23;;;;;;;11.02;6.70;;;10.10;99.90;;;;;;4973450;28;20029;-84
2023/04/28 03:03:48;;;;;;;9.48;7.03;;;10.00;99.90;;;;;;4973705;28;20027;-83
2023/04/28 03:06:14;;;;;;;8.07;6.50;;;10.00;99.90;;;;;;4973769;28;20035;-83
2023/04/28 03:08:40;;;;;;;13.25;7.15;;;10.00;99.90;;;;;;4973301;28;20035;-83
2023/04/28 03:11:05;;;;;;;7.70;6.68;;;10.00;99.90;;;;;;4974001;28;20180;-83
2023/04/28 03:13:31;;;;;;;8.95;6.80;;;10.00;99.90;;;;;;4973654;28;20023;-82
2023/04/28 03:15:56;;;;;;;10.52;6.53;;;10.00;99.90;;;;;;4973317;28;20046;-83
2023/04/28 03:18:22;;;;;;;10.38;6.63;;;10.00;99.90;;;;;;4973317;28;20049;-83
2023/04/28 03:20:48;;;;;;;9.88;6.78;;;10.00;99.90;;;;;;4973575;28;20053;-83
2023/04/28 03:23:14;;;;;;;10.10;6.93;;;10.00;99.90;;;;;;4971917;28;20030;-83
2023/04/28 03:25:40;;;;;;;10.30;6.35;;;10.00;99.90;;;;;;4972923;28;20036;-83
2023/04/28 03:28:05;;;;;;;9.55;6.85;;;10.10;99.90;;;;;;4973674;28;20471;-84
2023/04/28 03:30:31;;;;;;;9.80;6.75;;;10.00;99.90;;;;;;4972909;28;20478;-83
2023/04/28 03:32:56;;;;;;;9.43;6.40;;;10.00;99.90;;;;;;4973172;28;20529;-83
2023/04/28 03:35:22;;;;;;;8.07;7.13;;;10.00;99.90;;;;;;4973104;28;20133;-83
2023/04/28 03:37:48;;;;;;;9.23;6.40;;;10.00;99.90;;;;;;4972796;28;20074;-83
2023/04/28 03:40:14;;;;;;;7.95;6.75;;;10.00;99.90;;;;;;4973469;28;20113;-83
2023/04/28 03:42:39;;;;;;;10.48;6.28;;;10.00;99.90;;;;;;4973649;28;20023;-83
2023/04/28 03:45:06;;;;;;;7.28;6.65;;;10.00;99.90;;;;;;4955391;28;20055;-83
2023/04/28 03:47:32;;;;;;;7.93;7.13;;;10.00;99.90;;;;;;4972964;28;20034;-82
2023/04/28 03:49:58;;;;;;;9.25;7.47;;;10.00;99.90;;;;;;4972879;28;20034;-82
2023/04/28 03:52:24;;;;;;;9.10;7.13;;;10.00;99.90;;;;;;4971594;28;20019;-83
2023/04/28 03:54:50;;;;;;;9.55;7.20;;;10.00;99.90;;;;;;4973502;28;20127;-83
2023/04/28 03:57:16;;;;;;;11.60;7.28;;;9.80;99.90;;;;;;4977480;28;20493;-83
2023/04/28 03:59:41;;;;;;;10.65;6.72;;;9.90;99.90;;;;;;4985895;28;20031;-83
2023/04/28 04:02:07;;;;;;;8.07;7.28;;;9.90;99.90;;;;;;4973081;28;20067;-82
2023/04/28 04:04:32;;;;;;;12.00;7.68;;;9.80;99.90;;;;;;4972171;28;20023;-83
2023/04/28 04:06:58;;;;;;;11.20;7.45;;;9.90;99.90;;;;;;4974374;28;20038;-83
2023/04/28 04:09:24;;;;;;;10.77;7.55;;;9.80;99.90;;;;;;4976474;28;20026;-83
2023/04/28 04:11:49;;;;;;;13.02;7.00;;;9.90;99.90;;;;;;4976299;28;20030;-83
2023/04/28 04:14:15;;;;;;;12.45;6.78;;;9.90;99.90;;;;;;4976610;28;20491;-83
2023/04/28 04:16:41;;;;;;;14.45;6.97;;;9.90;99.90;;;;;;4969186;28;20114;-82
2023/04/28 04:19:06;;;;;;;8.82;6.35;;;9.90;99.90;;;;;;4975893;28;20487;-85
2023/04/28 04:21:32;;;;;;;7.72;6.60;;;10.00;99.90;;;;;;4976932;28;20034;-83
2023/04/28 04:23:57;;;;;;;6.80;6.15;;;10.00;99.90;;;;;;4977242;28;20030;-83
2023/04/28 04:26:23;;;;;;;7.43;6.65;;;10.00;99.90;;;;;;4976030;28;20027;-82
2023/04/28 04:28:49;;;;;;;11.80;7.25;;;10.10;99.90;;;;;;4977023;28;20126;-82
2023/04/28 04:31:15;;;;;;;8.63;6.32;;;10.00;99.90;;;;;;4976474;28;20109;-83
2023/04/28 04:33:40;;;;;;;10.63;7.63;;;10.10;99.90;;;;;;4976170;28;20029;-82
2023/04/28 04:36:06;;;;;;;10.05;7.35;;;10.00;99.90;;;;;;4976772;28;20054;-83
2023/04/28 04:38:32;;;;;;;11.05;7.25;;;10.00;99.90;;;;;;4976505;28;20078;-83
2023/04/28 04:40:57;;;;;;;11.10;8.13;;;9.90;99.90;;;;;;4975398;28;20039;-83
2023/04/28 04:43:23;;;;;;;11.38;7.32;;;9.80;99.90;;;;;;4975799;28;20102;-83
2023/04/28 04:45:49;;;;;;;10.02;7.20;;;9.90;99.90;;;;;;4976556;28;20431;-83
2023/04/28 04:48:14;;;;;;;10.63;7.70;;;9.90;99.90;;;;;;4975314;28;20030;-83
2023/04/28 04:50:41;;;;;;;10.32;7.95;;;10.40;99.90;;;;;;4976508;28;20027;-83
2023/04/28 04:53:06;;;;;;;9.48;7.50;;;9.90;99.90;;;;;;4976453;28;20398;-83
2023/04/28 04:55:32;;;;;;;10.75;7.55;;;9.90;99.90;;;;;;4974930;28;20019;-83
2023/04/28 04:57:58;;;;;;;11.07;7.30;;;10.00;99.90;;;;;;4976441;28;20475;-83
2023/04/28 05:00:23;;;;;;;10.60;7.72;;;10.00;99.90;;;;;;4975385;28;20471;-82
2023/04/28 05:02:49;;;;;;;11.30;7.97;;;10.00;99.90;;;;;;4976051;28;20022;-83
2023/04/28 05:05:15;;;;;;;15.63;8.93;;;10.00;99.90;;;;;;4975848;28;20033;-83
2023/04/28 05:07:41;;;;;;;12.75;8.48;;;9.90;99.90;;;;;;4975240;28;20062;-83
2023/04/28 05:10:07;;;;;;;12.02;9.02;;;9.90;99.90;;;;;;4975601;28;20463;-83
2023/04/28 05:12:33;;;;;;;10.13;8.75;;;10.00;99.90;;;;;;4975976;28;20031;-83
2023/04/28 05:14:58;;;;;;;12.05;9.43;;;10.50;99.90;;;;;;4975605;28;20442;-83
2023/04/28 05:17:24;;;;;;;18.80;9.63;;;10.00;99.90;;;;;;4974917;28;20751;-82
2023/04/28 05:19:50;;;;;;;10.30;8.30;;;9.90;99.90;;;;;;4975828;28;20689;-83
2023/04/28 05:22:15;;;;;;;16.10;8.27;;;9.90;99.90;;;;;;4974858;28;20027;-82
2023/04/28 05:24:41;;;;;;;14.10;9.88;;;10.00;99.90;;;;;;4975944;28;20027;-82
2023/04/28 05:27:06;;;;;;;11.60;9.55;;;9.90;99.90;;;;;;4975757;28;20452;-82
2023/04/28 05:29:32;;;;;;;12.30;9.32;;;9.90;99.90;;;;;;4975170;28;20483;-82
2023/04/28 05:31:57;;;;;;;10.45;8.80;;;10.00;99.90;;;;;;4975644;28;20498;-82
2023/04/28 05:34:23;;;;;;;10.20;9.13;;;10.10;99.90;;;;;;4975457;28;20522;-82
2023/04/28 05:36:50;;;;;;;12.85;9.38;;;10.10;99.90;;;;;;4975216;28;20041;-84
2023/04/28 05:39:16;;;;;;;12.90;8.70;;;10.20;99.90;;;;;;4975215;28;20137;-83
2023/04/28 05:41:41;;;;;;;14.93;10.23;;;10.20;99.90;;;;;;4975593;28;20105;-83
2023/04/28 05:44:07;;;;;;;10.50;9.18;;;10.30;99.90;;;;;;4974004;28;20101;-83
2023/04/28 05:46:32;;;;;;;11.15;9.73;;;10.30;99.90;;;;;;4994480;28;20041;-82
2023/04/28 05:48:58;;;;;;;15.23;9.80;;;10.20;99.90;;;;;;4994334;28;20101;-83
2023/04/28 05:51:23;;;;;;;10.43;9.43;;;10.20;99.90;;;;;;4993822;28;20026;-82
2023/04/28 05:53:49;;;;;;;13.32;9.90;;;10.20;99.90;;;;;;4995033;28;20489;-83
2023/04/28 05:56:15;;;;;;;17.25;9.98;;;10.10;99.90;;;;;;4994453;28;20367;-83
2023/04/28 05:58:43;;;;;;;12.45;9.38;;;10.10;99.90;;;;;;4994386;28;20113;-83
2023/04/28 06:01:09;;;;;;;18.02;10.68;;;10.00;99.90;;;;;;4994566;28;20517;-82
2023/04/28 06:03:35;;;;;;;13.32;10.15;;;10.00;99.90;;;;;;4993534;28;20030;-82
2023/04/28 06:06:00;;;;;;;14.65;11.07;;;9.90;99.90;;;;;;4992759;28;20041;-82
2023/04/28 06:08:26;;;;;;;20.40;10.85;;;9.90;99.90;;;;;;4994267;28;20026;-83
2023/04/28 06:10:51;;;;;;;17.10;11.65;;;9.90;99.90;;;;;;4993815;28;20026;-83
2023/04/28 06:13:17;;;;;;;16.98;12.27;;;9.90;99.90;;;;;;4993869;28;20026;-83
2023/04/28 06:15:43;;;;;;;17.90;12.45;;;9.90;99.90;;;;;;4994454;28;20043;-82
2023/04/28 06:18:08;;;;;;;18.83;12.68;;;9.90;99.90;;;;;;4993030;28;20058;-83
2023/04/28 06:20:34;;;;;;;13.63;11.82;;;9.90;99.90;;;;;;4994003;28;20062;-83
2023/04/28 06:23:05;;;;;;;17.10;13.10;;;10.00;99.90;;;;;;4993846;28;20030;-83
2023/04/28 06:25:31;;;;;;;14.65;12.43;;;9.90;99.90;;;;;;4993305;28;20427;-83
2023/04/28 06:27:56;;;;;;;20.67;13.40;;;9.90;99.90;;;;;;4994217;28;20065;-82
2023/04/28 06:30:23;;;;;;;18.23;13.40;;;9.90;99.90;;;;;;4992632;28;20023;-83
2023/04/28 06:32:48;;;;;;;15.70;13.75;;;10.00;99.90;;;;;;4993099;28;20030;-82
2023/04/28 06:35:15;;;;;;;21.55;13.48;;;10.00;99.90;;;;;;4993696;28;20154;-83
2023/04/28 06:37:41;;;;;;;18.85;13.43;;;10.70;99.90;;;;;;4993685;28;20054;-83
2023/04/28 06:40:08;;;;;;;19.17;14.13;;;10.00;99.90;;;;;;4977670;28;20475;-82
2023/04/28 06:42:34;;;;;;;18.83;13.80;;;10.00;99.90;;;;;;4973685;28;20036;-83
2023/04/28 06:44:59;;;;;;;18.10;14.13;;;10.00;99.90;;;;;;4973586;28;20026;-83
2023/04/28 06:47:25;;;;;;;21.40;14.50;;;10.00;99.90;;;;;;4971908;28;20030;-83
2023/04/28 06:49:51;;;;;;;20.88;15.00;;;10.00;99.90;;;;;;4971585;28;20027;-83
2023/04/28 06:52:16;;;;;;;18.00;14.68;;;10.00;99.90;;;;;;4972063;28;20030;-83
2023/04/28 06:54:42;;;;;;;20.65;15.27;;;10.00;99.90;;;;;;4971735;28;20023;-83
2023/04/28 06:57:08;;;;;;;19.17;15.38;;;9.90;99.90;;;;;;4972929;28;20065;-83
2023/04/28 06:59:33;;;;;;;23.33;15.95;;;9.90;99.90;;;;;;4973071;28;20114;-84
2023/04/28 07:01:59;;;;;;;22.65;15.45;;;9.90;99.90;;;;;;4970990;28;20047;-83
2023/04/28 07:04:26;;;;;;;22.70;17.30;;;10.00;99.90;;;;;;4973506;28;20034;-82
2023/04/28 07:06:51;;;;;;;20.17;16.23;;;10.00;99.90;;;;;;4972462;28;20077;-83
2023/04/28 07:09:17;;;;;;;27.92;17.95;;;10.10;99.90;;;;;;4971943;28;20110;-83
2023/04/28 07:11:43;;;;;;;18.33;16.25;;;10.10;99.90;;;;;;4973023;28;20482;-83
2023/04/28 07:14:08;;;;;;;22.92;17.42;;;10.10;99.90;;;;;;4971655;28;20433;-83
2023/04/28 07:16:35;;;;;;;23.70;17.30;;;10.50;99.90;;;;;;4972900;28;20035;-83
2023/04/28 07:19:00;;;;;;;27.83;18.52;;;10.20;99.90;;;;;;4972812;28;20053;-83
2023/04/28 07:21:27;;;;;;;25.25;17.48;;;10.20;99.90;;;;;;4972341;28;20479;-84
2023/04/28 07:23:55;;;;;;;25.55;18.65;;;10.30;99.90;;;;;;4972096;28;20491;-84
2023/04/28 07:26:24;;;;;;;31.15;19.20;;;10.30;99.90;;;;;;4966847;28;20039;-84
2023/04/28 07:28:50;;;;;;;34.72;18.60;;;10.30;99.90;;;;;;4968302;28;20033;-85
2023/04/28 07:31:16;;;;;;;30.15;19.85;;;10.30;99.90;;;;;;4971402;28;20062;-84
2023/04/28 07:33:41;;;;;;;30.27;20.33;;;10.30;99.90;;;;;;4971377;28;20101;-84
2023/04/28 07:36:07;;;;;;;32.47;20.70;;;10.30;99.90;;;;;;4971158;28;20117;-84
2023/04/28 07:38:34;;;;;;;30.85;22.15;;;11.00;99.90;;;;;;4972261;28;20047;-86
2023/04/28 07:41:00;;;;;;;27.48;21.88;;;10.30;99.90;;;;;;4973059;28;20066;-85
2023/04/28 07:43:25;;;;;;;29.55;22.20;;;10.30;99.90;;;;;;4972919;28;20124;-85
2023/04/28 07:45:52;;;;;;;38.92;23.20;;;10.30;99.90;;;;;;4973730;28;20031;-84
2023/04/28 07:48:18;;;;;;;34.67;22.92;;;10.40;99.90;;;;;;4972798;28;20053;-83
2023/04/28 07:50:43;;;;;;;34.75;23.75;;;10.40;99.90;;;;;;4971604;28;20475;-82
2023/04/28 07:53:11;;;;;;;40.15;24.13;;;10.50;99.90;;;;;;4973227;28;20034;-82
2023/04/28 07:55:37;;;;;;;30.77;22.17;;;10.80;99.90;;;;;;4971446;28;20035;-83
2023/04/28 07:58:03;;;;;;;29.55;22.02;;;10.50;99.90;;;;;;4971838;28;20518;-83
2023/04/28 08:00:28;;;;;;;34.63;23.45;;;10.50;99.90;;;;;;4971816;28;20051;-82
2023/04/28 08:02:55;;;;;;;35.78;25.00;;;10.50;99.90;;;;;;4972426;28;20376;-83
2023/04/28 08:05:21;;;;;;;32.50;22.95;;;10.50;99.90;;;;;;4972206;28;20023;-83
2023/04/28 08:07:46;;;;;;;38.05;24.17;;;10.50;99.90;;;;;;4973740;28;20517;-83
2023/04/28 08:10:12;;;;;;;34.28;24.83;;;10.60;99.90;;;;;;4973197;28;20486;-84
2023/04/28 08:12:39;;;;;;;34.00;23.73;;;10.60;99.90;;;;;;4974050;28;20394;-85
2023/04/28 08:15:05;;;;;;;32.33;23.95;;;10.70;99.90;;;;;;4973371;28;20049;-83
2023/04/28 08:17:31;;;;;;;35.35;24.80;;;10.70;99.90;;;;;;4971736;28;20058;-83
2023/04/28 08:19:57;;;;;;;33.35;24.55;;;10.70;99.90;;;;;;4962865;28;20043;-84
2023/04/28 08:22:23;;;;;;;38.65;24.70;;;10.70;99.90;;;;;;4955810;28;20042;-84
2023/04/28 08:24:48;;;;;;;33.67;24.17;;;10.80;99.90;;;;;;4966265;28;20382;-84
2023/04/28 08:27:14;;;;;;;36.35;25.70;;;10.80;99.90;;;;;;4973374;28;20106;-82
2023/04/28 08:29:40;;;;;;;32.83;23.65;;;10.90;99.90;;;;;;4988706;28;20391;-83
2023/04/28 08:32:05;;;;;;;31.95;24.25;;;10.90;99.90;;;;;;4990886;28;20474;-83
2023/04/28 08:34:32;;;;;;;33.83;24.95;;;10.90;99.90;;;;;;4992445;28;20035;-83
2023/04/28 08:36:57;;;;;;;33.97;24.02;;;10.90;99.90;;;;;;4992376;28;20080;-83
2023/04/28 08:39:25;;;;;;;34.20;25.83;;;10.90;99.90;;;;;;4991114;28;20050;-83
2023/04/28 08:41:51;;;;;;;33.88;26.27;;;11.00;99.90;;;;;;4992223;28;20026;-84
2023/04/28 08:44:17;;;;;;;38.38;26.45;;;11.70;99.90;;;;;;4991010;28;20025;-83
2023/04/28 08:46:44;;;;;;;33.72;26.00;;;11.00;99.90;;;;;;4990366;28;20390;-83
2023/04/28 08:49:15;;;;;;;36.33;26.23;;;11.00;99.90;;;;;;4989280;28;20022;-82
2023/04/28 08:51:56;;;;;;;37.10;26.98;;;11.10;99.90;;;;;;4987182;28;20030;-83
2023/04/28 08:54:22;;;;;;;;;;;11.10;99.90;;;;;;4972373;28;20034;-83
2023/04/28 08:56:48;;;;;;;36.13;26.45;;;11.40;99.90;;;;;;4973488;28;20009;-83
2023/04/28 08:59:14;;;;;;;35.70;25.42;;;11.20;99.90;;;;;;4973637;28;20118;-83
2023/04/28 09:01:40;;;;;;;37.05;28.02;;;11.30;99.90;;;;;;4973527;28;20443;-83
2023/04/28 09:04:06;;;;;;;37.38;27.15;;;11.30;99.90;;;;;;4975318;28;20114;-83
2023/04/28 09:06:36;;;;;;;33.33;26.17;;;11.50;99.90;;;;;;4975774;28;20029;-83
2023/04/28 09:09:24;;;;;;;36.47;25.25;;;11.60;99.90;;;;;;4975448;28;20500;-83
2023/04/28 09:11:54;;;;;;;32.05;25.95;;;11.40;99.90;;;;;;4975787;28;20109;-84
2023/04/28 09:14:21;;;;;;;34.70;26.73;;;11.40;99.90;;;;;;4962104;28;20031;-82
2023/04/28 09:16:47;;;;;;;31.45;24.83;;;11.40;99.90;;;;;;4973970;28;20397;-81
2023/04/28 09:19:13;;;;;;;29.55;24.25;;;11.50;99.90;;;;;;4974637;28;20035;-84
2023/04/28 09:22:05;;;;;;;31.10;24.02;;;11.50;99.90;;;;;;4970924;28;20031;-84
2023/04/28 09:24:35;;;;;;;31.85;24.85;;;11.60;99.90;;;;;;4972218;28;20053;-85
2023/04/28 09:27:03;;;;;;;31.60;23.02;;;11.60;99.90;;;;;;4975259;28;20029;-84
2023/04/28 09:29:29;;;;;;;33.38;23.67;;;11.70;99.90;;;;;;4975124;28;20058;-86
2023/04/28 09:32:13;;;;;;;27.17;22.02;;;12.00;99.90;;;;;;4975628;28;20065;-86
2023/04/28 09:34:46;;;;;;;30.30;22.83;;;11.80;99.90;;;;;;4974813;28;20369;-89
2023/04/28 09:37:19;;;;;;;26.42;21.30;;;11.90;99.90;;;;;;4971907;28;20355;-90
2023/04/28 09:39:48;;;;;;;23.90;21.17;;;11.90;99.90;;;;;;4972550;28;20046;-88
2023/04/28 09:42:36;;;;;;;27.48;20.58;;;12.00;99.90;;;;;;4972447;28;20031;-88
2023/04/28 09:45:14;;;;;;;25.15;20.30;;;12.10;99.90;;;;;;4973036;28;20062;-86
2023/04/28 09:47:45;;;;;;;31.80;22.95;;;12.10;99.90;;;;;;4976913;28;20479;-82
2023/04/28 09:50:13;;;;;;;25.60;21.73;;;12.00;99.90;;;;;;4973041;28;20038;-85
2023/04/28 09:52:44;;;;;;;26.42;21.08;;;12.10;99.90;;;;;;4972932;28;20034;-86
2023/04/28 09:55:11;;;;;;;29.55;20.80;;;12.10;99.90;;;;;;4975059;28;20537;-86
2023/04/28 09:57:38;;;;;;;26.30;19.77;;;12.20;99.90;;;;;;4974550;28;20046;-86
2023/04/28 10:00:09;;;;;;;25.83;19.65;;;12.20;99.90;;;;;;4974234;28;20128;-85
2023/04/28 10:02:36;;;;;;;22.35;17.10;;;12.20;99.90;;;;;;4974903;28;20034;-87
2023/04/28 10:05:02;;;;;;;26.10;18.00;;;12.20;99.90;;;;;;4974232;28;20031;-85
2023/04/28 10:07:29;;;;;;;21.50;16.00;;;12.20;99.90;;;;;;4974289;28;20484;-85
2023/04/28 10:09:55;;;;;;;22.38;15.60;;;12.20;99.90;;;;;;4974914;28;20041;-86
2023/04/28 10:12:22;;;;;;;17.30;13.25;;;12.20;99.90;;;;;;4975048;28;20033;-85
2023/04/28 10:14:49;;;;;;;14.52;10.90;;;12.40;99.90;;;;;;4971809;28;20062;-84
2023/04/28 10:17:16;;;;;;;16.05;11.80;;;12.30;99.90;;;;;;4962567;28;20032;-85
2023/04/28 10:19:44;;;;;;;14.80;11.20;;;12.30;99.90;;;;;;4954022;28;20098;-85
2023/04/28 10:22:36;;;;;;;16.05;11.68;;;12.30;99.90;;;;;;4979880;28;20026;-84
2023/04/28 10:25:11;;;;;;;20.10;11.95;;;12.40;99.90;;;;;;4969023;28;20041;-85
2023/04/28 10:27:42;;;;;;;16.23;11.77;;;12.30;99.90;;;;;;4994070;28;20030;-84
2023/04/28 10:30:17;;;;;;;16.13;11.65;;;12.50;99.90;;;;;;4993820;28;20034;-85
2023/04/28 10:32:44;;;;;;;13.40;9.23;;;12.40;99.90;;;;;;4991194;28;20018;-85
2023/04/28 10:35:31;;;;;;;13.07;9.20;;;12.50;99.90;;;;;;4992226;28;20448;-84
2023/04/28 10:38:05;;;;;;;12.10;9.20;;;12.50;99.90;;;;;;4991089;28;20051;-84
2023/04/28 10:40:33;;;;;;;11.15;9.02;;;12.60;99.90;;;;;;4990786;28;20084;-85
2023/04/28 10:42:58;;;;;;;12.18;8.25;;;12.60;99.90;;;;;;4990979;28;20025;-84
2023/04/28 10:45:55;;;;;;;13.05;7.03;;;12.60;99.90;;;;;;4989996;28;20031;-84
2023/04/28 10:48:33;;;;;;;6.47;4.40;;;12.60;99.90;;;;;;4991460;28;20026;-85
2023/04/28 10:51:11;;;;;;;5.55;4.18;;;12.60;99.90;;;;;;4991583;28;20537;-85
2023/04/28 10:56:14;;;;;;;5.90;4.75;;;12.70;99.90;;;;;;4993678;28;20034;-85
2023/04/28 10:58:42;;;;;;;6.60;3.80;;;12.60;99.90;;;;;;4993661;28;20045;-85
2023/04/28 11:01:20;;;;;;;3.67;3.38;;;12.80;99.90;;;;;;4992602;28;20038;-85
2023/04/28 11:04:11;;;;;;;3.20;2.90;;;12.60;99.90;;;;;;4975888;28;20105;-85
2023/04/28 11:07:06;;;;;;;6.07;3.22;;;12.60;99.90;;;;;;4992850;28;20049;-85
2023/04/28 11:09:32;;;;;;;4.10;3.10;;;12.60;99.90;;;;;;4993809;28;20026;-85
2023/04/28 11:12:01;;;;;;;3.55;2.90;;;13.40;99.90;;;;;;4993431;28;20065;-85
2023/04/28 11:14:33;;;;;;;5.75;2.35;;;12.60;99.90;;;;;;4992523;28;20056;-85
2023/04/28 11:17:10;;;;;;;3.83;2.80;;;12.60;99.90;;;;;;4993041;28;20042;-85
2023/04/28 11:19:39;;;;;;;2.63;2.42;;;12.60;99.90;;;;;;4993125;28;20065;-85
2023/04/28 11:22:18;;;;;;;3.15;2.53;;;12.70;99.90;;;;;;4992450;28;20141;-85
2023/04/28 11:24:59;;;;;;;6.00;3.53;;;12.70;99.90;;;;;;4993357;28;20022;-85
2023/04/28 11:27:26;;;;;;;3.42;2.67;;;12.70;99.90;;;;;;4992399;28;20030;-85
2023/04/28 11:29:52;;;;;;;2.97;2.70;;;12.80;99.90;;;;;;4993297;28;20030;-84
2023/04/28 11:32:29;;;;;;;4.75;3.03;;;12.70;99.90;;;;;;4992244;28;20030;-86
2023/04/28 11:34:55;;;;;;;4.25;2.95;;;12.80;99.90;;;;;;4992248;28;20066;-85
2023/04/28 11:37:22;;;;;;;3.53;3.20;;;12.80;99.90;;;;;;4992939;28;20430;-86
2023/04/28 11:39:48;;;;;;;2.80;2.60;;;12.80;99.90;;;;;;4992873;28;20092;-84
2023/04/28 11:42:14;;;;;;;3.60;3.05;;;12.80;99.90;;;;;;4992243;28;20540;-85
2023/04/28 11:44:39;;;;;;;4.03;3.35;;;12.80;99.90;;;;;;4993070;28;20034;-85
2023/04/28 11:47:06;;;;;;;4.20;3.35;;;12.80;99.90;;;;;;4992651;28;20378;-85
2023/04/28 11:49:42;;;;;;;3.40;3.10;;;12.70;99.90;;;;;;4992054;28;20031;-85
2023/04/28 11:52:08;;;;;;;3.72;2.83;;;12.80;99.90;;;;;;4992768;28;20109;-85
2023/04/28 11:54:35;;;;;;;2.95;2.15;;;12.70;99.90;;;;;;4993023;28;20026;-85
2023/04/28 11:57:05;;;;;;;2.53;2.33;;;12.70;99.90;;;;;;4992468;28;20034;-85
2023/04/28 11:59:33;;;;;;;2.88;2.50;;;13.00;99.90;;;;;;4993421;28;20038;-86
2023/04/28 12:02:04;;;;;;;2.88;2.63;;;12.70;99.90;;;;;;4992561;28;20109;-85
2023/04/28 12:04:38;;;;;;;2.90;2.58;;;12.60;99.90;;;;;;4991874;28;20050;-84
2023/04/28 12:07:15;;;;;;;2.40;2.30;;;12.60;99.90;;;;;;4992417;28;20497;-85
2023/04/28 12:10:08;;;;;;;2.70;2.50;;;12.70;99.90;;;;;;4991976;28;20025;-85
2023/04/28 12:12:33;;;;;;;2.80;2.70;;;12.70;99.90;;;;;;4992386;28;20030;-85
2023/04/28 12:15:01;;;;;;;2.60;2.50;;;12.70;99.90;;;;;;4992938;28;20118;-84
2023/04/28 12:17:32;;;;;;;3.13;2.92;;;12.70;99.90;;;;;;4991725;28;20031;-85
2023/04/28 12:19:59;;;;;;;2.47;2.38;;;12.60;99.90;;;;;;4992703;28;20042;-85
2023/04/28 12:22:25;;;;;;;1.98;1.88;;;12.70;99.90;;;;;;4992569;28;20106;-85
2023/04/28 12:25:10;;;;;;;4.30;2.33;;;13.40;99.90;;;;;;4992111;28;20057;-85
2023/04/28 12:27:38;;;;;;;1.95;1.85;;;12.70;99.90;;;;;;4993569;28;20026;-85
2023/04/28 12:30:24;;;;;;;2.20;2.08;;;12.70;99.90;;;;;;4996302;28;20030;-84
2023/04/28 12:32:50;;;;;;;2.70;2.60;;;12.70;99.90;;;;;;4995233;28;20110;-85
2023/04/28 12:35:21;;;;;;;3.00;2.80;;;12.70;99.90;;;;;;4995811;28;20047;-85
2023/04/28 12:37:46;;;;;;;2.53;2.42;;;13.00;99.90;;;;;;4995548;28;20042;-85
2023/04/28 12:40:13;;;;;;;3.33;3.00;;;12.70;99.90;;;;;;4995926;28;20402;-85
2023/04/28 12:42:39;;;;;;;3.67;3.47;;;13.20;99.90;;;;;;4997453;28;20411;-85